Time;durP1;ratioP1;P1;durP2;ratioP2;P2;SDS_P1;SDS_P2;PMS_P1;PMS_P2;Temp;Humidity;BMP_temperature;BMP_pressure;BME280_temperature;BME280_humidity;BME280_pressure;Samples;Min_cycle;Max_cycle;Signal;HPM_P1;HPM_P2
2022/12/05 00:01:20;;;;;;;;;42.75;34.75;;;;;3.77;78.77;101902.81;5043998;28;11597;-66
2022/12/05 00:03:50;;;;;;;;;36.50;31.25;;;;;3.82;78.80;101892.66;5053087;28;11526;-65
2022/12/05 00:06:17;;;;;;;;;36.75;30.00;;;;;3.78;78.53;101904.53;5046031;28;11528;-65
2022/12/05 00:08:45;;;;;;;;;38.75;36.00;;;;;3.79;78.82;101898.22;5033409;28;11561;-66
2022/12/05 00:11:19;;;;;;;;;38.00;29.50;;;;;3.76;78.73;101894.00;5050774;28;11513;-66
2022/12/05 00:13:47;;;;;;;;;41.00;35.00;;;;;3.80;78.94;101899.91;5053649;28;11552;-65
2022/12/05 00:16:17;;;;;;;;;32.00;28.50;;;;;3.82;79.29;101895.34;5052255;28;11634;-66
2022/12/05 00:18:44;;;;;;;;;37.50;35.75;;;;;3.82;78.96;101893.50;5058145;28;11666;-66
2022/12/05 00:21:14;;;;;;;;;36.00;26.50;;;;;3.85;78.75;101901.25;5056141;28;11584;-66
2022/12/05 00:23:41;;;;;;;;;47.50;30.75;;;;;3.86;78.83;101902.09;5051672;28;11513;-66
2022/12/05 00:26:09;;;;;;;;;39.25;31.25;;;;;3.87;79.02;101895.78;5022908;28;12254;-67
2022/12/05 00:28:35;;;;;;;;;39.25;34.75;;;;;3.88;79.28;101903.66;5051990;28;11550;-65
2022/12/05 00:31:06;;;;;;;;;50.75;36.50;;;;;3.87;79.11;101899.31;5046024;28;11684;-66
2022/12/05 00:33:32;;;;;;;;;35.00;31.75;;;;;3.87;78.92;101899.31;5051706;28;11564;-66
2022/12/05 00:36:04;;;;;;;;;28.75;25.75;;;;;3.86;79.00;101896.78;5037903;28;11620;-66
2022/12/05 00:38:31;;;;;;;;;45.75;38.25;;;;;3.89;79.07;101899.16;5028636;28;11577;-66
2022/12/05 00:41:11;;;;;;;;;38.25;30.25;;;;;3.90;78.89;101899.06;5050216;28;11519;-66
2022/12/05 00:43:38;;;;;;;;;43.25;33.25;;;;;3.89;79.27;101897.38;5050082;28;12239;-66
2022/12/05 00:46:10;;;;;;;;;37.00;33.25;;;;;3.91;79.01;101908.72;5045720;28;11562;-64
2022/12/05 00:48:37;;;;;;;;;38.00;33.00;;;;;3.89;79.04;101904.50;5044648;28;11543;-66
2022/12/05 00:51:08;;;;;;;;;46.25;36.00;;;;;3.90;79.09;101896.41;5050152;28;11523;-65
2022/12/05 00:53:34;;;;;;;;;34.00;32.50;;;;;3.86;79.25;101899.44;5055833;28;12347;-66
2022/12/05 00:56:07;;;;;;;;;47.75;38.00;;;;;3.83;79.61;101902.34;5040558;28;11617;-66
2022/12/05 00:58:33;;;;;;;;;59.25;40.25;;;;;3.83;80.01;101894.34;5054616;28;12217;-66
2022/12/05 01:01:06;;;;;;;;;41.75;34.25;;;;;3.87;79.65;101903.78;5036943;28;11647;-66
2022/12/05 01:03:33;;;;;;;;;36.00;30.25;;;;;3.87;79.38;101907.28;5048458;28;11515;-66
2022/12/05 01:06:00;;;;;;;;;38.00;34.50;;;;;3.85;79.49;101906.59;5049237;28;11517;-67
2022/12/05 01:08:27;;;;;;;;;39.50;38.00;;;;;3.89;79.45;101908.03;5045734;28;11675;-66
2022/12/05 01:10:55;;;;;;;;;52.00;39.75;;;;;3.90;79.59;101904.38;5047553;28;11534;-67
2022/12/05 01:13:22;;;;;;;;;42.50;35.25;;;;;3.89;79.75;101908.03;5040568;28;12271;-67
2022/12/05 01:15:49;;;;;;;;;37.00;35.50;;;;;3.90;80.01;101895.56;5046034;28;11529;-66
2022/12/05 01:18:16;;;;;;;;;41.00;33.25;;;;;3.92;79.86;101907.75;5052104;28;11547;-66
2022/12/05 01:20:43;;;;;;;;;33.00;30.50;;;;;3.93;80.07;101901.47;5051450;28;11596;-67
2022/12/05 01:23:10;;;;;;;;;45.00;37.25;;;;;3.98;79.61;101898.44;5051042;28;11551;-67
2022/12/05 01:25:41;;;;;;;;;39.75;31.75;;;;;3.98;79.76;101895.78;5050414;28;11601;-67
2022/12/05 01:28:08;;;;;;;;;41.00;31.75;;;;;3.96;80.42;101898.53;5041007;28;11698;-67
2022/12/05 01:30:42;;;;;;;;;31.50;29.25;;;;;4.01;80.19;101900.84;5050620;28;11556;-67
2022/12/05 01:33:09;;;;;;;;;39.50;32.50;;;;;4.02;80.17;101896.38;5053275;28;11526;-66
2022/12/05 01:35:38;;;;;;;;;32.75;30.50;;;;;4.04;80.25;101899.75;5047047;28;11602;-66
2022/12/05 01:38:06;;;;;;;;;38.25;34.25;;;;;4.03;80.43;101904.22;5058683;28;11605;-66
2022/12/05 01:40:36;;;;;;;;;36.25;35.50;;;;;4.05;80.12;101910.28;5040329;28;11495;-66
2022/12/05 01:43:15;;;;;;;;;37.25;31.50;;;;;4.08;80.05;101898.53;5042215;28;11681;-67
2022/12/05 01:45:44;;;;;;;;;38.50;32.50;;;;;4.10;79.78;101894.75;5041701;28;12332;-67
2022/12/05 01:48:17;;;;;;;;;36.00;25.50;;;;;4.08;79.91;101907.34;5051845;28;11564;-67
2022/12/05 01:50:44;;;;;;;;;31.00;29.75;;;;;4.07;79.98;101910.16;5046157;28;11540;-68
2022/12/05 01:53:11;;;;;;;;;33.75;31.25;;;;;4.04;80.32;101911.25;5047687;28;11446;-67
2022/12/05 01:55:38;;;;;;;;;41.25;32.00;;;;;4.05;79.97;101920.06;5047792;28;11538;-67
2022/12/05 01:58:07;;;;;;;;;30.75;30.75;;;;;4.05;80.02;101909.41;5043957;28;11562;-67
2022/12/05 02:00:33;;;;;;;;;33.75;28.50;;;;;4.02;80.77;101907.88;5026070;28;12254;-67
2022/12/05 02:03:04;;;;;;;;;40.00;31.25;;;;;4.03;80.60;101900.72;5050245;28;11518;-67
2022/12/05 02:05:33;;;;;;;;;37.00;29.75;;;;;4.05;80.81;101909.41;5049611;28;11514;-67
2022/12/05 02:08:04;;;;;;;;;25.25;22.25;;;;;4.10;80.25;101915.25;5041863;28;11636;-67
2022/12/05 02:10:37;;;;;;;;;36.75;28.75;;;;;4.12;80.32;101910.63;5044984;28;11476;-67
2022/12/05 02:13:37;;;;;;;;;39.00;30.75;;;;;4.11;80.20;101915.09;5042486;28;11600;-67
2022/12/05 02:16:20;;;;;;;;;33.25;24.00;;;;;4.10;80.51;101908.09;5039676;28;11471;-67
2022/12/05 02:19:03;;;;;;;;;30.50;25.50;;;;;4.06;80.69;101909.31;5053053;28;11532;-67
2022/12/05 02:21:38;;;;;;;;;33.75;27.50;;;;;4.06;80.73;101904.00;5047451;28;11555;-66
2022/12/05 02:24:25;;;;;;;;;35.50;29.25;;;;;4.04;81.04;101897.91;5052332;28;11646;-67
2022/12/05 02:27:28;;;;;;;;;31.75;26.75;;;;;4.06;80.95;101905.81;5040695;28;11526;-66
2022/12/05 02:30:02;;;;;;;;;32.25;27.00;;;;;4.11;80.46;101908.94;5052259;28;11539;-67
2022/12/05 02:32:32;;;;;;;;;31.00;27.50;;;;;4.11;80.36;101903.59;5046646;28;11524;-66
2022/12/05 02:35:12;;;;;;;;;34.25;25.50;;;;;4.15;80.34;101897.03;5041937;28;11667;-66
2022/12/05 02:37:42;;;;;;;;;41.50;28.25;;;;;4.16;80.91;101896.06;5054074;28;11632;-66
2022/12/05 02:40:20;;;;;;;;;36.25;30.50;;;;;4.21;80.57;101901.84;5044101;28;11529;-66
2022/12/05 02:42:46;;;;;;;;;32.75;25.25;;;;;4.27;80.53;101903.19;5048005;28;12271;-66
2022/12/05 02:45:16;;;;;;;;;24.50;22.75;;;;;4.31;79.79;101905.47;5049463;28;11498;-66
2022/12/05 02:47:46;;;;;;;;;33.25;30.50;;;;;4.29;80.01;101901.22;5053285;28;11459;-67
2022/12/05 02:50:18;;;;;;;;;36.75;24.50;;;;;4.26;80.23;101901.50;5044720;28;11580;-66
2022/12/05 02:52:48;;;;;;;;;39.00;31.00;;;;;4.26;80.26;101902.34;5056074;28;11513;-66
2022/12/05 02:55:17;;;;;;;;;25.25;22.75;;;;;4.30;80.20;101898.44;5034860;28;12211;-67
2022/12/05 02:57:51;;;;;;;;;29.25;26.25;;;;;4.34;79.98;101905.22;5055047;28;11443;-66
2022/12/05 03:00:17;;;;;;;;;21.00;21.00;;;;;4.32;80.02;101906.31;5051814;28;11526;-67
2022/12/05 03:02:44;;;;;;;;;35.75;31.25;;;;;4.27;80.03;101906.69;5051930;28;11522;-67
2022/12/05 03:06:01;;;;;;;;;31.25;23.75;;;;;4.29;80.54;101911.88;5056470;28;11596;-67
2022/12/05 03:08:41;;;;;;;;;35.25;22.00;;;;;4.28;80.62;101907.53;4996481;28;11558;-66
2022/12/05 03:11:08;;;;;;;;;26.50;22.00;;;;;4.24;80.29;101904.28;5050034;28;11488;-65
2022/12/05 03:13:49;;;;;;;;;30.75;23.75;;;;;4.27;80.60;101903.19;5052039;28;11551;-66
2022/12/05 03:16:28;;;;;;;;;29.00;23.50;;;;;4.28;80.71;101902.19;5040358;28;11597;-66
2022/12/05 03:19:00;;;;;;;;;37.25;27.75;;;;;4.29;80.55;101909.22;5076413;23;11570;-67
2022/12/05 03:21:34;;;;;;;;;29.25;21.75;;;;;4.30;80.55;101906.44;5068171;28;11456;-68
2022/12/05 03:24:10;;;;;;;;;27.50;25.50;;;;;4.34;80.28;101910.56;5061324;28;11592;-67
2022/12/05 03:26:45;;;;;;;;;31.25;27.50;;;;;4.32;80.14;101911.63;5074551;28;11486;-67
2022/12/05 03:29:25;;;;;;;;;31.50;29.50;;;;;4.32;80.46;101919.63;5052824;28;11508;-67
2022/12/05 03:31:57;;;;;;;;;30.00;24.25;;;;;4.34;80.25;101915.88;5051341;28;11482;-67
2022/12/05 03:34:32;;;;;;;;;23.75;21.00;;;;;4.37;80.30;101917.44;5054459;28;11477;-67
2022/12/05 03:37:06;;;;;;;;;29.75;27.00;;;;;4.37;80.53;101920.94;5053929;28;11593;-67
2022/12/05 03:39:36;;;;;;;;;30.50;25.25;;;;;4.39;80.38;101921.66;5046437;28;11519;-67
2022/12/05 03:42:11;;;;;;;;;27.50;24.00;;;;;4.40;80.34;101926.03;5049745;28;11616;-67
2022/12/05 03:44:53;;;;;;;;;25.50;23.25;;;;;4.39;80.60;101923.50;5048039;28;11595;-67
2022/12/05 03:47:29;;;;;;;;;29.50;25.75;;;;;4.40;80.77;101923.34;5048359;28;11477;-67
2022/12/05 03:50:02;;;;;;;;;37.75;30.50;;;;;4.42;80.52;101925.91;5051639;28;11548;-67
2022/12/05 03:52:34;;;;;;;;;32.50;28.00;;;;;4.46;80.74;101917.53;5030777;28;11613;-67
2022/12/05 03:55:25;;;;;;;;;25.50;21.25;;;;;4.47;80.36;101921.88;5041832;28;11537;-67
2022/12/05 03:57:59;;;;;;;;;31.00;23.50;;;;;4.46;80.93;101924.69;5026727;28;11524;-66
2022/12/05 04:00:31;;;;;;;;;30.75;26.75;;;;;4.46;80.76;101928.19;5045629;28;11541;-67
2022/12/05 04:03:23;;;;;;;;;29.75;27.25;;;;;4.46;80.64;101930.84;5045869;28;12404;-66
2022/12/05 04:05:55;;;;;;;;;35.50;29.25;;;;;4.50;80.63;101938.56;5053283;28;11510;-67
2022/12/05 04:08:26;;;;;;;;;34.75;32.75;;;;;4.51;81.14;101930.47;5036543;28;11520;-66
2022/12/05 04:10:59;;;;;;;;;31.50;25.00;;;;;4.52;81.22;101923.31;5029086;28;11548;-67
2022/12/05 04:13:43;;;;;;;;;28.75;27.50;;;;;4.47;81.52;101932.53;5049266;28;11560;-67
2022/12/05 04:19:06;;;;;;;;;33.75;30.25;;;;;4.51;81.40;101938.47;5050402;28;11516;-67
2022/12/05 04:21:42;;;;;;;;;35.00;26.00;;;;;4.52;81.32;101942.81;5043852;28;11883;-67
2022/12/05 04:27:28;;;;;;;;;46.75;36.25;;;;;4.51;81.37;101934.97;5048488;28;11557;-67
2022/12/05 04:30:05;;;;;;;;;42.25;35.25;;;;;4.50;82.00;101935.91;5053771;28;11542;-67
2022/12/05 04:32:50;;;;;;;;;30.50;18.50;;;;;4.51;82.36;101933.13;5044673;28;11553;-67
2022/12/05 04:35:23;;;;;;;;;36.25;33.50;;;;;4.52;81.64;101928.66;5038843;28;11566;-67
2022/12/05 04:37:54;;;;;;;;;38.50;30.75;;;;;4.56;82.13;101940.75;5058658;28;11507;-67
2022/12/05 04:40:27;;;;;;;;;37.75;31.00;;;;;4.51;82.27;101922.47;5049494;28;11655;-67
2022/12/05 04:42:57;;;;;;;;;38.25;32.50;;;;;4.54;82.20;101926.69;5044990;28;11523;-67
2022/12/05 04:45:25;;;;;;;;;48.25;37.25;;;;;4.56;82.61;101917.59;5028031;28;12328;-67
2022/12/05 04:48:00;;;;;;;;;41.00;35.25;;;;;4.55;82.08;101923.91;5036115;28;11524;-67
2022/12/05 04:50:32;;;;;;;;;30.50;26.00;;;;;4.56;82.27;101914.09;5046602;28;11529;-67
2022/12/05 04:53:00;;;;;;;;;35.00;29.00;;;;;4.60;83.01;101919.03;5034455;28;11671;-67
2022/12/05 04:55:30;;;;;;;;;36.50;32.50;;;;;4.59;82.30;101922.66;5053128;28;11529;-67
2022/12/05 04:58:23;;;;;;;;;30.75;28.75;;;;;4.63;82.80;101923.25;5052501;28;11568;-67
2022/12/05 05:00:56;;;;;;;;;38.25;33.50;;;;;4.63;82.62;101910.78;5049053;28;11470;-67
2022/12/05 05:03:34;;;;;;;;;33.25;30.00;;;;;4.64;82.22;101919.63;5044706;28;11678;-67
2022/12/05 05:06:01;;;;;;;;;42.25;31.75;;;;;4.64;82.25;101916.94;5027807;28;11499;-67
2022/12/05 05:08:28;;;;;;;;;27.50;26.25;;;;;4.66;82.42;101915.84;5060272;28;11542;-67
2022/12/05 05:10:57;;;;;;;;;36.00;29.50;;;;;4.69;82.68;101925.41;5031591;28;11464;-67
2022/12/05 05:13:24;;;;;;;;;36.00;28.75;;;;;4.71;82.63;101923.47;5053992;28;11610;-67
2022/12/05 05:15:50;;;;;;;;;34.25;28.50;;;;;4.71;82.34;101923.47;5046005;28;11551;-67
2022/12/05 05:18:17;;;;;;;;;33.50;27.50;;;;;4.71;82.39;101923.47;5054109;28;11550;-67
2022/12/05 05:20:44;;;;;;;;;32.75;29.75;;;;;4.68;82.72;101929.06;5045558;28;11505;-67
2022/12/05 05:23:10;;;;;;;;;28.50;25.00;;;;;4.70;82.95;101929.78;5050316;28;11537;-67
2022/12/05 05:25:37;;;;;;;;;38.00;31.25;;;;;4.70;82.46;101925.28;5043642;28;11599;-66
2022/12/05 05:28:03;;;;;;;;;35.25;30.75;;;;;4.73;82.83;101924.16;5031666;28;11573;-67
2022/12/05 05:30:30;;;;;;;;;40.25;32.25;;;;;4.72;82.70;101919.81;5027075;28;11667;-67
2022/12/05 05:32:58;;;;;;;;;32.75;27.25;;;;;4.72;82.73;101927.81;5038703;28;11603;-67
2022/12/05 05:35:24;;;;;;;;;35.25;31.00;;;;;4.70;82.64;101925.28;5040434;28;11608;-67
2022/12/05 05:37:50;;;;;;;;;35.25;31.25;;;;;4.71;82.87;101926.97;5056328;28;11479;-67
2022/12/05 05:40:17;;;;;;;;;32.75;28.00;;;;;4.70;82.87;101925.28;5045817;28;11456;-67
2022/12/05 05:42:48;;;;;;;;;40.75;35.00;;;;;4.70;83.00;101935.13;5056449;28;11561;-67
2022/12/05 05:45:15;;;;;;;;;46.25;35.00;;;;;4.72;83.10;101930.47;5046485;28;11568;-67
2022/12/05 05:47:41;;;;;;;;;33.50;29.25;;;;;4.71;82.96;101939.47;5043310;28;11500;-67
2022/12/05 05:50:09;;;;;;;;;28.75;23.50;;;;;4.72;83.14;101938.47;5029201;28;11681;-67
2022/12/05 05:52:41;;;;;;;;;33.75;30.75;;;;;4.67;83.32;101943.38;5043168;28;11564;-67
2022/12/05 05:55:08;;;;;;;;;33.75;30.25;;;;;4.64;83.50;101946.28;5046062;28;11554;-67
2022/12/05 05:57:35;;;;;;;;;31.50;27.00;;;;;4.68;83.63;101937.06;5044101;28;11544;-67
2022/12/05 06:00:07;;;;;;;;;26.00;24.75;;;;;4.71;83.49;101948.31;5047075;28;11538;-67
2022/12/05 06:02:34;;;;;;;;;29.25;26.25;;;;;4.69;83.11;101934.25;5046711;28;11562;-67
2022/12/05 06:05:02;;;;;;;;;39.00;29.75;;;;;4.70;83.76;101935.13;5052786;28;11502;-67
2022/12/05 06:07:29;;;;;;;;;35.00;31.25;;;;;4.68;83.65;101937.06;5025360;28;11578;-67
2022/12/05 06:09:55;;;;;;;;;35.00;29.50;;;;;4.66;83.93;101934.53;5044229;28;11644;-67
2022/12/05 06:12:23;;;;;;;;;32.25;22.50;;;;;4.73;84.00;101934.84;5046420;28;11529;-67
2022/12/05 06:14:50;;;;;;;;;32.00;26.25;;;;;4.72;83.82;101942.00;5055554;28;11526;-67
2022/12/05 06:17:17;;;;;;;;;29.00;25.50;;;;;4.76;83.66;101941.75;5039948;28;11486;-67
2022/12/05 06:19:43;;;;;;;;;22.75;20.00;;;;;4.76;83.99;101945.25;5048376;28;11522;-67
2022/12/05 06:22:10;;;;;;;;;28.25;25.75;;;;;4.79;84.09;101945.00;5040588;28;11460;-67
2022/12/05 06:24:37;;;;;;;;;29.50;27.75;;;;;4.81;84.08;101945.69;5029253;28;11506;-67
2022/12/05 06:27:03;;;;;;;;;26.00;22.00;;;;;4.80;84.16;101941.34;5050247;28;11518;-67
2022/12/05 06:29:30;;;;;;;;;22.00;20.25;;;;;4.84;84.17;101945.44;5053175;28;11539;-68
2022/12/05 06:32:00;;;;;;;;;22.25;18.75;;;;;4.89;84.03;101951.22;5027154;28;11621;-67
2022/12/05 06:34:26;;;;;;;;;24.25;20.25;;;;;4.89;84.11;101959.25;5042083;28;11489;-67
2022/12/05 06:36:53;;;;;;;;;18.25;15.00;;;;;4.89;83.78;101948.56;5047721;28;11441;-67
2022/12/05 06:39:19;;;;;;;;;19.00;16.75;;;;;4.86;83.94;101950.66;5042413;28;11459;-67
2022/12/05 06:41:46;;;;;;;;;20.75;19.50;;;;;4.90;83.63;101965.41;5034535;28;11460;-67
2022/12/05 06:44:12;;;;;;;;;23.25;20.50;;;;;4.89;83.91;101953.91;5048118;28;11463;-67
2022/12/05 06:46:38;;;;;;;;;20.50;18.75;;;;;4.89;83.62;101956.56;5045327;28;11477;-67
2022/12/05 06:49:05;;;;;;;;;17.25;15.75;;;;;4.91;83.46;101959.13;5043460;28;11473;-67
2022/12/05 06:51:31;;;;;;;;;19.75;17.50;;;;;4.89;83.79;101955.72;5042455;28;11463;-67
2022/12/05 06:53:58;;;;;;;;;17.50;15.50;;;;;4.91;84.08;101965.31;5045723;28;11468;-67
2022/12/05 06:56:24;;;;;;;;;20.50;15.00;;;;;4.91;83.88;101961.78;5046138;28;11566;-67
2022/12/05 06:58:52;;;;;;;;;22.25;15.00;;;;;4.88;84.08;101959.38;5048796;28;11448;-67
2022/12/05 07:01:40;;;;;;;;;17.25;17.25;;;;;4.90;84.12;101965.41;5053120;28;11437;-67
2022/12/05 07:04:15;;;;;;;;;26.25;20.00;;;;;4.89;84.16;101963.72;5036957;28;11663;-67
2022/12/05 07:06:43;;;;;;;;;19.75;17.50;;;;;4.90;84.65;101960.97;5039130;28;11586;-67
2022/12/05 07:09:17;;;;;;;;;14.25;14.25;;;;;4.95;83.77;101973.91;5032708;28;11614;-67
2022/12/05 07:11:48;;;;;;;;;19.50;14.50;;;;;4.94;84.04;101973.06;5034372;28;11539;-67
2022/12/05 07:14:15;;;;;;;;;14.75;13.50;;;;;4.96;83.91;101968.44;5033018;28;12251;-67
2022/12/05 07:17:01;;;;;;;;;18.75;18.00;;;;;5.02;83.50;101976.88;5033090;28;11505;-67
2022/12/05 07:19:28;;;;;;;;;13.75;13.75;;;;;5.00;83.65;101976.19;5033149;28;11523;-68
2022/12/05 07:21:54;;;;;;;;;15.50;14.25;;;;;4.98;83.73;101978.97;5032916;28;11656;-67
2022/12/05 07:24:21;;;;;;;;;14.00;12.00;;;;;4.98;84.28;101981.63;5014935;28;11539;-67
2022/12/05 07:26:47;;;;;;;;;18.50;18.00;;;;;5.04;83.78;101977.59;5016473;28;11517;-66
2022/12/05 07:29:13;;;;;;;;;14.75;14.00;;;;;5.01;83.60;101986.72;5015584;28;11689;-67
2022/12/05 07:31:40;;;;;;;;;18.00;16.75;;;;;5.00;83.52;101979.69;5032968;28;12368;-67
2022/12/05 07:34:07;;;;;;;;;13.50;12.25;;;;;5.04;83.95;101988.28;5032603;28;11528;-67
2022/12/05 07:36:33;;;;;;;;;14.00;12.75;;;;;5.03;83.35;101990.13;5032205;28;11595;-67
2022/12/05 07:39:03;;;;;;;;;13.00;12.00;;;;;5.04;83.55;101986.47;5033038;28;11547;-68
2022/12/05 07:41:35;;;;;;;;;14.00;11.50;;;;;5.05;83.73;101992.63;5033095;28;11641;-67
2022/12/05 07:44:06;;;;;;;;;15.25;14.00;;;;;5.05;83.58;101993.47;5017122;28;11518;-67
2022/12/05 07:46:33;;;;;;;;;11.25;10.00;;;;;5.06;83.71;101987.16;5015520;28;11456;-67
2022/12/05 07:48:59;;;;;;;;;13.75;11.50;;;;;5.09;83.94;101997.59;5032482;28;11483;-67
2022/12/05 07:51:26;;;;;;;;;12.50;8.75;;;;;5.09;83.74;101991.41;5032778;28;12146;-68
2022/12/05 07:53:52;;;;;;;;;10.25;10.00;;;;;5.09;83.79;102005.59;5014796;28;11455;-67
2022/12/05 07:56:20;;;;;;;;;8.50;8.50;;;;;5.08;83.83;101997.72;5032410;28;11494;-67
2022/12/05 07:58:48;;;;;;;;;9.00;9.00;;;;;5.11;83.79;102002.81;5033690;28;11404;-67
2022/12/05 08:01:24;;;;;;;;;8.50;8.50;;;;;5.11;83.04;102000.97;5034502;28;11588;-67
2022/12/05 08:03:57;;;;;;;;;14.75;12.00;;;;;5.12;83.51;102007.16;5052532;28;11450;-67
2022/12/05 08:06:26;;;;;;;;;12.25;12.25;;;;;5.13;83.46;101998.16;5034344;28;11435;-67
2022/12/05 08:08:53;;;;;;;;;11.00;9.00;;;;;5.14;83.58;101997.19;5052191;28;11474;-67
2022/12/05 08:11:29;;;;;;;;;11.75;11.00;;;;;5.17;83.61;101999.59;5052466;28;11438;-67
2022/12/05 08:13:56;;;;;;;;;10.00;10.00;;;;;5.16;83.41;102004.09;5037917;28;11539;-67
2022/12/05 08:16:26;;;;;;;;;13.25;12.75;;;;;5.15;83.54;102009.56;5031950;28;11454;-67
2022/12/05 08:18:55;;;;;;;;;14.50;14.00;;;;;5.14;83.23;102016.72;5031965;28;11732;-68
2022/12/05 08:21:21;;;;;;;;;13.25;10.50;;;;;5.14;83.69;102015.88;5032197;28;11535;-67
2022/12/05 08:23:48;;;;;;;;;12.00;11.00;;;;;5.15;83.74;102012.25;5032148;28;11540;-68
2022/12/05 08:26:19;;;;;;;;;10.00;8.75;;;;;5.21;84.04;102009.03;5031874;28;11648;-67
2022/12/05 08:28:49;;;;;;;;;11.25;10.50;;;;;5.22;83.47;102010.72;5015988;28;11578;-67
2022/12/05 08:31:17;;;;;;;;;18.25;14.25;;;;;5.23;83.54;102014.28;5014598;28;11583;-68
2022/12/05 08:33:44;;;;;;;;;13.25;9.00;;;;;5.19;83.23;102014.53;5049787;28;11512;-67
2022/12/05 08:36:14;;;;;;;;;12.75;12.00;;;;;5.18;83.28;102014.63;5051424;28;11477;-67
2022/12/05 08:38:41;;;;;;;;;11.50;9.00;;;;;5.19;83.37;102025.19;5051547;28;11431;-67
2022/12/05 08:41:10;;;;;;;;;15.25;13.25;;;;;5.18;83.34;102025.31;5051676;28;11472;-67
2022/12/05 08:43:37;;;;;;;;;15.75;11.50;;;;;5.18;83.34;102023.47;5051558;28;11443;-67
2022/12/05 08:46:04;;;;;;;;;13.00;10.00;;;;;5.20;83.71;102021.53;5029180;28;11646;-67
2022/12/05 08:48:32;;;;;;;;;11.00;10.00;;;;;5.23;83.69;102028.47;5050653;28;11474;-67
2022/12/05 08:51:04;;;;;;;;;12.75;12.00;;;;;5.22;83.65;102029.41;5051319;28;11529;-67
2022/12/05 08:53:30;;;;;;;;;9.75;9.75;;;;;5.25;83.95;102031.81;5033674;28;11431;-67
2022/12/05 08:56:01;;;;;;;;;15.50;12.00;;;;;5.26;83.39;102030.00;5051380;28;12240;-67
2022/12/05 08:58:28;;;;;;;;;16.00;11.50;;;;;5.27;83.41;102034.38;5033290;28;12275;-66
2022/12/05 09:01:03;;;;;;;;;8.50;8.50;;;;;5.31;83.51;102025.13;5051582;28;11435;-68
2022/12/05 09:03:29;;;;;;;;;8.50;8.50;;;;;5.29;83.57;102030.59;5048307;28;11437;-68
2022/12/05 09:06:10;;;;;;;;;8.75;8.75;;;;;5.30;83.33;102034.94;5046595;28;11627;-68
2022/12/05 09:08:38;;;;;;;;;11.25;8.25;;;;;5.28;83.31;102030.72;5031262;28;11517;-68
2022/12/05 09:11:19;;;;;;;;;12.25;9.50;;;;;5.29;82.75;102041.28;5031322;28;11455;-68
2022/12/05 09:13:47;;;;;;;;;14.50;11.00;;;;;5.29;83.13;102035.09;5031042;28;11510;-66
2022/12/05 09:16:16;;;;;;;;;13.75;11.50;;;;;5.28;83.03;102036.06;5013220;28;11544;-66
2022/12/05 09:18:43;;;;;;;;;9.50;9.00;;;;;5.31;83.19;102041.16;5031345;28;11489;-66
2022/12/05 09:21:16;;;;;;;;;15.00;11.25;;;;;5.33;83.26;102048.03;5043569;28;11420;-66
2022/12/05 09:23:43;;;;;;;;;6.00;5.75;;;;;5.35;83.66;102045.25;5051036;28;11474;-65
2022/12/05 09:26:12;;;;;;;;;7.25;7.25;;;;;5.36;83.43;102053.13;5050481;28;11267;-66
2022/12/05 09:28:39;;;;;;;;;11.50;9.25;;;;;5.36;82.76;102050.47;5050807;28;11400;-66
2022/12/05 09:31:14;;;;;;;;;14.00;12.50;;;;;5.38;82.77;102050.31;5032706;28;11523;-66
2022/12/05 09:33:40;;;;;;;;;8.75;8.00;;;;;5.35;83.16;102056.78;5050883;28;11437;-66
2022/12/05 09:36:11;;;;;;;;;12.25;9.00;;;;;5.37;83.53;102059.31;5048769;28;11530;-64
2022/12/05 09:38:38;;;;;;;;;12.50;12.50;;;;;5.39;83.27;102063.56;5031366;28;11576;-65
2022/12/05 09:44:25;;;;;;;;;10.75;8.00;;;;;5.36;82.75;102061.13;5030439;28;12230;-66
2022/12/05 09:47:00;;;;;;;;;12.50;9.25;;;;;5.37;83.32;102070.00;5030279;28;11461;-65
2022/12/05 09:49:28;;;;;;;;;12.00;9.00;;;;;5.41;83.18;102069.59;5013004;28;11535;-66
2022/12/05 09:51:56;;;;;;;;;13.75;11.25;;;;;5.40;82.84;102067.91;5032830;28;11549;-67
2022/12/05 09:54:24;;;;;;;;;11.00;11.00;;;;;5.40;83.38;102073.25;5030170;28;11511;-67
2022/12/05 09:56:52;;;;;;;;;11.75;11.00;;;;;5.37;83.35;102068.16;5012390;28;11589;-66
2022/12/05 09:59:19;;;;;;;;;14.50;12.00;;;;;5.36;82.92;102071.81;5030231;28;11483;-67
2022/12/05 10:02:02;;;;;;;;;11.50;11.50;;;;;5.33;83.32;102065.88;5030482;28;11549;-66
2022/12/05 10:04:47;;;;;;;;;16.00;13.25;;;;;5.33;83.06;102069.41;5032472;28;11540;-66
2022/12/05 10:07:33;;;;;;;;;15.50;12.00;;;;;5.35;83.58;102080.81;5050183;28;11441;-66
2022/12/05 10:10:47;;;;;;;;;21.25;12.00;;;;;5.35;83.84;102069.28;5050137;28;11549;-66
2022/12/05 10:13:44;;;;;;;;;10.00;8.00;;;;;5.36;83.84;102065.63;4986617;28;11470;-66
2022/12/05 10:16:21;;;;;;;;;18.25;14.50;;;;;5.31;84.00;102068.69;4952787;28;11269;-66
2022/12/05 10:18:56;;;;;;;;;13.50;13.25;;;;;5.34;83.47;102065.75;5018545;28;11650;-66
2022/12/05 10:21:35;;;;;;;;;12.00;11.75;;;;;5.37;83.70;102070.00;5030068;28;11520;-66
2022/12/05 10:24:13;;;;;;;;;9.25;7.25;;;;;5.38;83.59;102067.19;5012450;28;11612;-66
2022/12/05 10:26:57;;;;;;;;;11.00;11.00;;;;;5.36;83.64;102069.16;5040325;28;11448;-66
2022/12/05 10:29:32;;;;;;;;;10.50;8.25;;;;;5.40;84.08;102072.41;5012758;28;12264;-66
2022/12/05 10:32:12;;;;;;;;;15.75;8.75;;;;;5.41;84.00;102058.91;5030063;28;11483;-66
2022/12/05 10:34:41;;;;;;;;;13.25;11.25;;;;;5.43;83.70;102058.81;5012568;28;11581;-66
2022/12/05 10:37:19;;;;;;;;;12.00;11.25;;;;;5.48;83.95;102058.41;5029721;28;11537;-65
2022/12/05 10:39:47;;;;;;;;;12.75;10.00;;;;;5.51;83.71;102061.66;5029873;28;11521;-66
2022/12/05 10:42:22;;;;;;;;;12.25;11.00;;;;;5.51;83.78;102055.44;5032111;28;11443;-67
2022/12/05 10:44:55;;;;;;;;;12.25;8.50;;;;;5.54;83.79;102055.19;5030114;28;11572;-67
2022/12/05 10:47:22;;;;;;;;;12.25;9.50;;;;;5.55;83.58;102056.88;5029940;28;11523;-67
2022/12/05 10:49:49;;;;;;;;;17.50;11.50;;;;;5.55;83.76;102051.53;5033451;28;11508;-66
2022/12/05 10:52:16;;;;;;;;;12.50;9.50;;;;;5.57;83.45;102052.28;5034459;28;11484;-66
2022/12/05 10:54:48;;;;;;;;;13.00;11.25;;;;;5.60;83.83;102052.00;5033005;28;11434;-66
2022/12/05 10:57:23;;;;;;;;;12.00;12.00;;;;;5.64;83.44;102053.44;5034033;28;11510;-66
2022/12/05 10:59:50;;;;;;;;;11.25;10.75;;;;;5.63;83.45;102057.94;5022518;28;11427;-65
2022/12/05 11:02:22;;;;;;;;;13.25;12.00;;;;;5.67;83.30;102053.16;5051507;28;11430;-66
2022/12/05 11:04:49;;;;;;;;;9.50;9.50;;;;;5.68;83.12;102062.88;5033229;28;11134;-65
2022/12/05 11:07:32;;;;;;;;;15.25;13.50;;;;;5.68;83.13;102062.88;5053100;28;12035;-65
2022/12/05 11:10:01;;;;;;;;;11.75;10.00;;;;;5.65;83.08;102053.28;5054081;28;11467;-66
2022/12/05 11:12:34;;;;;;;;;14.50;11.50;;;;;5.68;83.50;102054.88;5054252;28;11231;-65
2022/12/05 11:15:24;;;;;;;;;13.50;12.50;;;;;5.68;83.50;102049.53;5053837;28;11473;-66
2022/12/05 11:17:52;;;;;;;;;9.50;9.00;;;;;5.69;83.39;102060.06;5036214;28;11252;-65
2022/12/05 11:20:19;;;;;;;;;13.25;13.25;;;;;5.67;83.52;102054.03;5016795;28;11576;-65
2022/12/05 11:22:50;;;;;;;;;14.00;12.00;;;;;5.65;83.44;102055.97;5034447;28;11500;-65
2022/12/05 11:25:35;;;;;;;;;13.25;12.00;;;;;5.64;83.41;102058.78;5035713;28;11574;-65
2022/12/05 11:28:16;;;;;;;;;11.75;11.75;;;;;5.64;83.83;102054.28;5034411;28;11521;-66
2022/12/05 11:31:04;;;;;;;;;15.25;11.50;;;;;5.63;83.67;102051.72;5045300;28;11602;-65
2022/12/05 11:33:33;;;;;;;;;12.25;11.50;;;;;5.60;83.90;102054.69;5016294;28;11491;-66
2022/12/05 11:36:18;;;;;;;;;13.00;10.75;;;;;5.60;84.01;102063.53;5045471;28;11423;-66
2022/12/05 11:38:45;;;;;;;;;14.25;12.50;;;;;5.65;83.97;102053.28;5053658;28;11422;-66
2022/12/05 11:41:22;;;;;;;;;11.50;9.50;;;;;5.63;84.08;102057.06;5052890;28;11431;-65
2022/12/05 11:44:11;;;;;;;;;12.25;10.25;;;;;5.64;83.52;102062.28;5052845;28;11242;-65
2022/12/05 11:47:05;;;;;;;;;12.25;10.00;;;;;5.63;83.48;102059.75;5035234;28;11471;-65
2022/12/05 11:49:43;;;;;;;;;11.75;9.50;;;;;5.60;83.52;102052.84;5052302;28;11539;-65